Terminal Aerodrome Forecast
Issued by NWS

Home | Current Version | Previous Version | Text Only | Print | Product List | Glossary On
Versions: 1 2 3 4 5 6 7 8 9 10 11 12 13 14 15 16 17 18 19 20 21 22 23 24 25 26 27 28 29 30 31 32 33 34 35 36 37
000
FTUS45 KBOU 271132
TAFAPA
TAF
KAPA 271132Z 2712/2812 20007KT P6SM SCT080 BKN120
      TEMPO 2712/2715 -SHRA BKN080
     FM271500 33006KT P6SM VCSH SCT080 BKN110
     FM271900 01011KT P6SM SCT070 BKN120
      TEMPO 2720/2723 VRB20G30KT -TSRA BKN060CB
     FM280200 15005KT P6SM SCT080 SCT140
     FM280600 20010KT P6SM FEW140=

USA.gov is the U.S. government's official web portal to all federal, state and local government web resources and services.